sensor_id;sensor_type;location;lat;lon;timestamp;pressure;altitude;pressure_sealevel;temperature;humidity
65553;BME280;52465;51.560;14.368;2023-04-02T00:11:40;99597.97;;;12.12;67.64
65553;BME280;52465;51.560;14.368;2023-04-02T00:14:16;99602.59;;;12.10;68.05
65553;BME280;52465;51.560;14.368;2023-04-02T00:16:43;99599.50;;;12.06;67.79
65553;BME280;52465;51.560;14.368;2023-04-02T00:19:16;99603.94;;;12.06;67.98
65553;BME280;52465;51.560;14.368;2023-04-02T00:22:16;99595.19;;;11.99;67.69
65553;BME280;52465;51.560;14.368;2023-04-02T00:24:42;99610.66;;;12.08;67.66
65553;BME280;52465;51.560;14.368;2023-04-02T00:27:12;99609.03;;;12.07;67.50
65553;BME280;52465;51.560;14.368;2023-04-02T00:29:51;99609.75;;;12.01;67.85
65553;BME280;52465;51.560;14.368;2023-04-02T00:32:21;99574.06;;;11.77;67.57
65553;BME280;52465;51.560;14.368;2023-04-02T00:34:49;99617.25;;;12.04;67.39
65553;BME280;52465;51.560;14.368;2023-04-02T00:37:18;99575.88;;;11.77;67.61
65553;BME280;52465;51.560;14.368;2023-04-02T00:39:59;99632.00;;;12.05;67.70
65553;BME280;52465;51.560;14.368;2023-04-02T00:42:25;99629.38;;;12.05;67.83
65553;BME280;52465;51.560;14.368;2023-04-02T00:44:52;99627.19;;;11.94;67.75
65553;BME280;52465;51.560;14.368;2023-04-02T00:47:36;99641.69;;;12.05;67.55
65553;BME280;52465;51.560;14.368;2023-04-02T00:52:41;99646.13;;;12.04;67.67
65553;BME280;52465;51.560;14.368;2023-04-02T00:57:34;99613.41;;;11.77;67.64
65553;BME280;52465;51.560;14.368;2023-04-02T01:02:38;99637.88;;;11.93;67.77
65553;BME280;52465;51.560;14.368;2023-04-02T01:07:52;99664.38;;;11.98;67.91
65553;BME280;52465;51.560;14.368;2023-04-02T01:10:43;99674.50;;;12.01;67.93
65553;BME280;52465;51.560;14.368;2023-04-02T01:13:23;99677.97;;;12.01;67.93
65553;BME280;52465;51.560;14.368;2023-04-02T01:16:16;99671.97;;;11.93;67.66
65553;BME280;52465;51.560;14.368;2023-04-02T01:19:11;99686.00;;;12.00;67.64
65553;BME280;52465;51.560;14.368;2023-04-02T01:21:54;99689.63;;;11.99;67.70
65553;BME280;52465;51.560;14.368;2023-04-02T01:24:23;99701.13;;;11.98;67.79
65553;BME280;52465;51.560;14.368;2023-04-02T01:29:30;99707.16;;;11.98;67.46
65553;BME280;52465;51.560;14.368;2023-04-02T01:32:04;99717.84;;;11.97;67.91
65553;BME280;52465;51.560;14.368;2023-04-02T01:34:31;99714.75;;;11.93;68.01
65553;BME280;52465;51.560;14.368;2023-04-02T01:37:19;99712.59;;;11.97;67.91
65553;BME280;52465;51.560;14.368;2023-04-02T01:39:59;99712.31;;;11.91;67.73
65553;BME280;52465;51.560;14.368;2023-04-02T01:42:44;99725.88;;;11.95;67.58
65553;BME280;52465;51.560;14.368;2023-04-02T01:45:17;99735.41;;;11.96;67.89
65553;BME280;52465;51.560;14.368;2023-04-02T01:47:44;99719.28;;;11.84;67.39
65553;BME280;52465;51.560;14.368;2023-04-02T01:52:49;99726.31;;;11.84;67.62
65553;BME280;52465;51.560;14.368;2023-04-02T01:55:28;99730.41;;;11.78;67.90
65553;BME280;52465;51.560;14.368;2023-04-02T01:57:55;99754.91;;;11.94;68.04
65553;BME280;52465;51.560;14.368;2023-04-02T02:00:21;99759.34;;;11.93;67.43
65553;BME280;52465;51.560;14.368;2023-04-02T02:02:50;99740.09;;;11.78;67.69
65553;BME280;52465;51.560;14.368;2023-04-02T02:05:19;99751.19;;;11.88;67.71
65553;BME280;52465;51.560;14.368;2023-04-02T02:07:45;99747.47;;;11.82;67.73
65553;BME280;52465;51.560;14.368;2023-04-02T02:10:17;99778.91;;;11.90;67.83
65553;BME280;52465;51.560;14.368;2023-04-02T02:12:46;99772.00;;;11.89;67.75
65553;BME280;52465;51.560;14.368;2023-04-02T02:15:14;99772.84;;;11.90;67.75
65553;BME280;52465;51.560;14.368;2023-04-02T02:17:41;99773.38;;;11.85;67.96
65553;BME280;52465;51.560;14.368;2023-04-02T02:20:07;99775.66;;;11.80;68.01
65553;BME280;52465;51.560;14.368;2023-04-02T02:24:58;99769.50;;;11.73;67.67
65553;BME280;52465;51.560;14.368;2023-04-02T02:29:56;99802.03;;;11.87;67.70
65553;BME280;52465;51.560;14.368;2023-04-02T02:32:28;99808.09;;;11.87;67.81
65553;BME280;52465;51.560;14.368;2023-04-02T02:35:09;99798.59;;;11.78;67.71
65553;BME280;52465;51.560;14.368;2023-04-02T02:37:39;99818.75;;;11.86;67.54
65553;BME280;52465;51.560;14.368;2023-04-02T02:40:18;99820.25;;;11.80;67.77
65553;BME280;52465;51.560;14.368;2023-04-02T02:42:51;99838.13;;;11.85;67.70
65553;BME280;52465;51.560;14.368;2023-04-02T02:45:25;99830.41;;;11.83;67.90
65553;BME280;52465;51.560;14.368;2023-04-02T02:47:58;99836.47;;;11.84;67.67
65553;BME280;52465;51.560;14.368;2023-04-02T02:50:29;99833.25;;;11.74;67.64
65553;BME280;52465;51.560;14.368;2023-04-02T02:53:03;99845.31;;;11.83;67.83
65553;BME280;52465;51.560;14.368;2023-04-02T02:55:31;99838.94;;;11.77;67.67
65553;BME280;52465;51.560;14.368;2023-04-02T02:58:05;99859.59;;;11.80;67.63
65553;BME280;52465;51.560;14.368;2023-04-02T03:00:36;99847.31;;;11.73;67.51
65553;BME280;52465;51.560;14.368;2023-04-02T03:03:12;99867.31;;;11.82;68.12
65553;BME280;52465;51.560;14.368;2023-04-02T03:05:39;99836.13;;;11.56;67.99
65553;BME280;52465;51.560;14.368;2023-04-02T03:08:10;99843.47;;;11.60;67.91
65553;BME280;52465;51.560;14.368;2023-04-02T03:10:53;99883.38;;;11.79;67.63
65553;BME280;52465;51.560;14.368;2023-04-02T03:13:27;99868.03;;;11.68;67.88
65553;BME280;52465;51.560;14.368;2023-04-02T03:16:17;99892.22;;;11.78;67.99
65553;BME280;52465;51.560;14.368;2023-04-02T03:18:54;99901.88;;;11.77;67.92
65553;BME280;52465;51.560;14.368;2023-04-02T03:21:35;99893.72;;;11.72;67.72
65553;BME280;52465;51.560;14.368;2023-04-02T03:24:08;99886.72;;;11.64;67.91
65553;BME280;52465;51.560;14.368;2023-04-02T03:26:49;99898.16;;;11.72;67.92
65553;BME280;52465;51.560;14.368;2023-04-02T03:29:24;99912.56;;;11.76;67.87
65553;BME280;52465;51.560;14.368;2023-04-02T03:32:15;99919.59;;;11.75;67.75
65553;BME280;52465;51.560;14.368;2023-04-02T03:34:54;99915.50;;;11.73;67.64
65553;BME280;52465;51.560;14.368;2023-04-02T03:37:27;99904.75;;;11.68;67.71
65553;BME280;52465;51.560;14.368;2023-04-02T03:42:52;99928.63;;;11.73;67.82
65553;BME280;52465;51.560;14.368;2023-04-02T03:45:25;99891.56;;;11.45;67.90
65553;BME280;52465;51.560;14.368;2023-04-02T03:50:42;99950.59;;;11.72;67.55
65553;BME280;52465;51.560;14.368;2023-04-02T03:53:36;99921.06;;;11.47;67.69
65553;BME280;52465;51.560;14.368;2023-04-02T03:56:02;99938.72;;;11.53;67.87
65553;BME280;52465;51.560;14.368;2023-04-02T03:58:37;99955.06;;;11.63;67.84
65553;BME280;52465;51.560;14.368;2023-04-02T04:01:25;99972.06;;;11.67;67.65
65553;BME280;52465;51.560;14.368;2023-04-02T04:03:55;99984.22;;;11.68;67.63
65553;BME280;52465;51.560;14.368;2023-04-02T04:06:26;99975.06;;;11.64;67.76
65553;BME280;52465;51.560;14.368;2023-04-02T04:09:08;99988.66;;;11.68;67.94
65553;BME280;52465;51.560;14.368;2023-04-02T04:11:37;99973.78;;;11.52;67.89
65553;BME280;52465;51.560;14.368;2023-04-02T04:14:32;100002.56;;;11.68;67.89
65553;BME280;52465;51.560;14.368;2023-04-02T04:19:45;100009.78;;;11.66;67.58
65553;BME280;52465;51.560;14.368;2023-04-02T04:22:22;100018.63;;;11.65;67.81
65553;BME280;52465;51.560;14.368;2023-04-02T04:24:57;100018.81;;;11.63;67.74
65553;BME280;52465;51.560;14.368;2023-04-02T04:27:47;100027.50;;;11.64;67.84
65553;BME280;52465;51.560;14.368;2023-04-02T04:30:28;100031.09;;;11.63;67.86
65553;BME280;52465;51.560;14.368;2023-04-02T04:33:03;100044.84;;;11.65;67.94
65553;BME280;52465;51.560;14.368;2023-04-02T04:35:31;100046.50;;;11.66;67.99
65553;BME280;52465;51.560;14.368;2023-04-02T04:38:02;100007.56;;;11.38;67.94
65553;BME280;52465;51.560;14.368;2023-04-02T04:40:32;100005.47;;;11.34;67.87
65553;BME280;52465;51.560;14.368;2023-04-02T04:43:03;100064.38;;;11.62;67.76
65553;BME280;52465;51.560;14.368;2023-04-02T04:45:49;100062.91;;;11.60;67.88
65553;BME280;52465;51.560;14.368;2023-04-02T04:48:28;100074.19;;;11.60;67.98
65553;BME280;52465;51.560;14.368;2023-04-02T04:51:03;100073.38;;;11.60;67.79
65553;BME280;52465;51.560;14.368;2023-04-02T04:53:41;100064.56;;;11.53;67.75
65553;BME280;52465;51.560;14.368;2023-04-02T04:56:10;100073.75;;;11.57;67.94
65553;BME280;52465;51.560;14.368;2023-04-02T04:58:49;100077.84;;;11.51;67.64
65553;BME280;52465;51.560;14.368;2023-04-02T05:01:26;100069.34;;;11.41;67.82
65553;BME280;52465;51.560;14.368;2023-04-02T05:04:05;100093.41;;;11.53;67.65
65553;BME280;52465;51.560;14.368;2023-04-02T05:06:40;100106.00;;;11.57;67.90
65553;BME280;52465;51.560;14.368;2023-04-02T05:09:16;100111.25;;;11.57;67.82
65553;BME280;52465;51.560;14.368;2023-04-02T05:11:58;100120.13;;;11.56;67.97
65553;BME280;52465;51.560;14.368;2023-04-02T05:14:33;100114.03;;;11.56;67.79
65553;BME280;52465;51.560;14.368;2023-04-02T05:17:08;100123.56;;;11.57;67.82
65553;BME280;52465;51.560;14.368;2023-04-02T05:20:25;100114.53;;;11.43;67.65
65553;BME280;52465;51.560;14.368;2023-04-02T05:22:56;100130.09;;;11.53;68.01
65553;BME280;52465;51.560;14.368;2023-04-02T05:25:29;100123.91;;;11.46;67.74
65553;BME280;52465;51.560;14.368;2023-04-02T05:28:02;100142.22;;;11.54;67.91
65553;BME280;52465;51.560;14.368;2023-04-02T05:30:45;100154.50;;;11.53;67.81
65553;BME280;52465;51.560;14.368;2023-04-02T05:33:20;100163.19;;;11.54;67.82
65553;BME280;52465;51.560;14.368;2023-04-02T05:35:50;100156.31;;;11.53;67.59
65553;BME280;52465;51.560;14.368;2023-04-02T05:38:21;100156.50;;;11.51;67.90
65553;BME280;52465;51.560;14.368;2023-04-02T05:40:50;100148.28;;;11.38;67.75
65553;BME280;52465;51.560;14.368;2023-04-02T05:43:25;100171.22;;;11.52;67.65
65553;BME280;52465;51.560;14.368;2023-04-02T05:46:00;100173.84;;;11.52;67.94
65553;BME280;52465;51.560;14.368;2023-04-02T05:48:36;100179.28;;;11.51;67.76
65553;BME280;52465;51.560;14.368;2023-04-02T05:51:07;100179.59;;;11.48;67.83
65553;BME280;52465;51.560;14.368;2023-04-02T05:53:44;100172.88;;;11.37;67.69
65553;BME280;52465;51.560;14.368;2023-04-02T05:56:24;100189.09;;;11.49;67.80
65553;BME280;52465;51.560;14.368;2023-04-02T05:58:58;100194.31;;;11.49;67.69
65553;BME280;52465;51.560;14.368;2023-04-02T06:01:38;100190.72;;;11.42;67.79
65553;BME280;52465;51.560;14.368;2023-04-02T06:04:19;100204.00;;;11.48;67.74
65553;BME280;52465;51.560;14.368;2023-04-02T06:06:57;100164.81;;;11.22;68.02
65553;BME280;52465;51.560;14.368;2023-04-02T06:09:36;100219.91;;;11.47;67.71
65553;BME280;52465;51.560;14.368;2023-04-02T06:14:33;100190.72;;;11.33;67.88
65553;BME280;52465;51.560;14.368;2023-04-02T06:17:01;100200.22;;;11.34;67.67
65553;BME280;52465;51.560;14.368;2023-04-02T06:19:31;100229.56;;;11.46;67.79
65553;BME280;52465;51.560;14.368;2023-04-02T06:22:09;100238.41;;;11.45;67.83
65553;BME280;52465;51.560;14.368;2023-04-02T06:24:39;100232.34;;;11.36;67.84
65553;BME280;52465;51.560;14.368;2023-04-02T06:27:05;100214.47;;;11.24;67.91
65553;BME280;52465;51.560;14.368;2023-04-02T06:29:36;100242.66;;;11.38;67.56
65553;BME280;52465;51.560;14.368;2023-04-02T06:32:06;100256.78;;;11.45;67.90
65553;BME280;52465;51.560;14.368;2023-04-02T06:34:35;100262.00;;;11.45;67.59
65553;BME280;52465;51.560;14.368;2023-04-02T06:37:25;100260.50;;;11.43;67.74
65553;BME280;52465;51.560;14.368;2023-04-02T06:39:53;100258.72;;;11.35;67.60
65553;BME280;52465;51.560;14.368;2023-04-02T06:42:29;100281.66;;;11.41;68.07
65553;BME280;52465;51.560;14.368;2023-04-02T06:44:58;100260.31;;;11.28;67.62
65553;BME280;52465;51.560;14.368;2023-04-02T06:47:36;100283.47;;;11.41;67.75
65553;BME280;52465;51.560;14.368;2023-04-02T06:50:27;100282.78;;;11.38;67.73
65553;BME280;52465;51.560;14.368;2023-04-02T06:52:58;100296.69;;;11.39;67.76
65553;BME280;52465;51.560;14.368;2023-04-02T06:55:47;100310.50;;;11.41;67.77
65553;BME280;52465;51.560;14.368;2023-04-02T06:58:16;100314.22;;;11.38;67.92
65553;BME280;52465;51.560;14.368;2023-04-02T07:00:44;100281.78;;;11.23;67.72
65553;BME280;52465;51.560;14.368;2023-04-02T07:03:22;100307.00;;;11.32;67.85
65553;BME280;52465;51.560;14.368;2023-04-02T07:05:48;100286.69;;;11.18;67.46
65553;BME280;52465;51.560;14.368;2023-04-02T07:08:14;100319.47;;;11.38;67.63
65553;BME280;52465;51.560;14.368;2023-04-02T07:10:39;100321.44;;;11.36;67.85
65553;BME280;52465;51.560;14.368;2023-04-02T07:13:05;100321.91;;;11.32;67.86
65553;BME280;52465;51.560;14.368;2023-04-02T07:15:31;100323.06;;;11.29;67.34
65553;BME280;52465;51.560;14.368;2023-04-02T07:17:57;100341.44;;;11.37;67.99
65553;BME280;52465;51.560;14.368;2023-04-02T07:27:18;100354.00;;;11.26;68.85
65553;BME280;52465;51.560;14.368;2023-04-02T07:29:44;100355.19;;;11.31;68.32
65553;BME280;52465;51.560;14.368;2023-04-02T07:32:11;100354.06;;;11.34;68.44
65553;BME280;52465;51.560;14.368;2023-04-02T07:34:38;100370.09;;;11.39;68.30
65553;BME280;52465;51.560;14.368;2023-04-02T07:37:04;100373.56;;;11.39;68.05
65553;BME280;52465;51.560;14.368;2023-04-02T07:39:30;100380.44;;;11.41;68.01
65553;BME280;52465;51.560;14.368;2023-04-02T07:42:00;100386.50;;;11.41;67.89
65553;BME280;52465;51.560;14.368;2023-04-02T07:44:27;100326.22;;;10.99;67.90
65553;BME280;52465;51.560;14.368;2023-04-02T07:46:52;100388.44;;;11.39;67.71
65553;BME280;52465;51.560;14.368;2023-04-02T07:49:20;100382.03;;;11.33;67.80
65553;BME280;52465;51.560;14.368;2023-04-02T07:51:46;100382.53;;;11.29;67.80
65553;BME280;52465;51.560;14.368;2023-04-02T07:54:14;100384.53;;;11.35;67.99
65553;BME280;52465;51.560;14.368;2023-04-02T07:56:42;100397.47;;;11.36;67.32
65553;BME280;52465;51.560;14.368;2023-04-02T07:59:19;100350.84;;;11.06;67.49
65553;BME280;52465;51.560;14.368;2023-04-02T08:01:45;100386.75;;;11.22;67.69
65553;BME280;52465;51.560;14.368;2023-04-02T08:04:21;100405.78;;;11.32;67.73
65553;BME280;52465;51.560;14.368;2023-04-02T08:06:47;100398.72;;;11.24;67.86
65553;BME280;52465;51.560;14.368;2023-04-02T08:09:15;100417.78;;;11.34;67.57
65553;BME280;52465;51.560;14.368;2023-04-02T08:11:41;100425.63;;;11.34;67.57
65553;BME280;52465;51.560;14.368;2023-04-02T08:14:10;100426.59;;;11.33;67.72
65553;BME280;52465;51.560;14.368;2023-04-02T08:16:52;100425.94;;;11.31;67.61
65553;BME280;52465;51.560;14.368;2023-04-02T08:19:19;100416.09;;;11.25;67.27
65553;BME280;52465;51.560;14.368;2023-04-02T08:21:45;100439.03;;;11.31;67.61
65553;BME280;52465;51.560;14.368;2023-04-02T08:24:15;100439.03;;;11.31;67.64
65553;BME280;52465;51.560;14.368;2023-04-02T08:26:44;100416.88;;;11.18;67.62
65553;BME280;52465;51.560;14.368;2023-04-02T08:29:12;100423.44;;;11.22;67.73
65553;BME280;52465;51.560;14.368;2023-04-02T08:31:37;100431.00;;;11.25;67.82
65553;BME280;52465;51.560;14.368;2023-04-02T08:34:03;100432.44;;;11.19;67.67
65553;BME280;52465;51.560;14.368;2023-04-02T08:36:33;100454.13;;;11.29;67.59
65553;BME280;52465;51.560;14.368;2023-04-02T08:38:59;100454.41;;;11.26;67.68
65553;BME280;52465;51.560;14.368;2023-04-02T08:41:26;100449.63;;;11.22;67.63
65553;BME280;52465;51.560;14.368;2023-04-02T08:44:07;100466.53;;;11.27;67.59
65553;BME280;52465;51.560;14.368;2023-04-02T08:46:44;100462.44;;;11.25;67.44
65553;BME280;52465;51.560;14.368;2023-04-02T08:49:28;100470.81;;;11.28;67.60
65553;BME280;52465;51.560;14.368;2023-04-02T08:51:57;100484.75;;;11.29;67.64
65553;BME280;52465;51.560;14.368;2023-04-02T08:54:29;100474.03;;;11.22;67.41
65553;BME280;52465;51.560;14.368;2023-04-02T08:57:14;100479.00;;;11.25;67.52
65553;BME280;52465;51.560;14.368;2023-04-02T08:59:43;100482.59;;;11.24;67.28
65553;BME280;52465;51.560;14.368;2023-04-02T09:02:26;100462.88;;;11.12;67.61
65553;BME280;52465;51.560;14.368;2023-04-02T09:04:56;100466.97;;;11.15;67.47
65553;BME280;52465;51.560;14.368;2023-04-02T09:07:23;100479.44;;;11.21;67.75
65553;BME280;52465;51.560;14.368;2023-04-02T09:09:49;100482.75;;;11.23;67.38
65553;BME280;52465;51.560;14.368;2023-04-02T09:12:20;100493.06;;;11.24;67.62
65553;BME280;52465;51.560;14.368;2023-04-02T09:17:35;100496.44;;;11.17;67.69
65553;BME280;52465;51.560;14.368;2023-04-02T09:23:00;100475.19;;;10.94;67.47
65553;BME280;52465;51.560;14.368;2023-04-02T09:25:28;100520.56;;;11.20;67.33
65553;BME280;52465;51.560;14.368;2023-04-02T09:28:00;100524.00;;;11.21;67.39
65553;BME280;52465;51.560;14.368;2023-04-02T09:30:28;100527.44;;;11.21;67.52
65553;BME280;52465;51.560;14.368;2023-04-02T09:33:03;100516.09;;;11.12;67.65
65553;BME280;52465;51.560;14.368;2023-04-02T09:35:35;100526.44;;;11.22;67.20
65553;BME280;52465;51.560;14.368;2023-04-02T09:48:31;100540.13;;;11.08;67.32
65553;BME280;52465;51.560;14.368;2023-04-02T09:53:37;100573.78;;;11.21;67.64
65553;BME280;52465;51.560;14.368;2023-04-02T09:56:15;100580.81;;;11.20;67.74
65553;BME280;52465;51.560;14.368;2023-04-02T09:58:42;100552.91;;;11.11;67.63
65553;BME280;52465;51.560;14.368;2023-04-02T10:01:25;100573.94;;;11.19;67.52
65553;BME280;52465;51.560;14.368;2023-04-02T10:03:51;100562.81;;;11.17;67.52
65553;BME280;52465;51.560;14.368;2023-04-02T10:06:17;100542.63;;;10.92;67.48
65553;BME280;52465;51.560;14.368;2023-04-02T10:08:44;100572.91;;;11.12;67.60
65553;BME280;52465;51.560;14.368;2023-04-02T10:11:16;100588.84;;;11.19;67.37
65553;BME280;52465;51.560;14.368;2023-04-02T10:13:53;100566.94;;;11.02;67.38
65553;BME280;52465;51.560;14.368;2023-04-02T10:16:30;100592.44;;;11.18;67.40
65553;BME280;52465;51.560;14.368;2023-04-02T10:19:07;100588.16;;;11.17;67.41
65553;BME280;52465;51.560;14.368;2023-04-02T10:21:40;100583.53;;;11.10;67.49
65553;BME280;52465;51.560;14.368;2023-04-02T10:24:11;100556.25;;;10.95;67.73
65553;BME280;52465;51.560;14.368;2023-04-02T10:43:33;100617.97;;;11.16;67.41
65553;BME280;52465;51.560;14.368;2023-04-02T10:51:35;100618.13;;;11.14;67.36
65553;BME280;52465;51.560;14.368;2023-04-02T10:54:29;100632.88;;;11.15;67.37
65553;BME280;52465;51.560;14.368;2023-04-02T10:57:04;100627.13;;;11.11;67.46
65553;BME280;52465;51.560;14.368;2023-04-02T10:59:33;100637.13;;;11.16;67.30
65553;BME280;52465;51.560;14.368;2023-04-02T11:02:03;100620.59;;;10.98;67.26
65553;BME280;52465;51.560;14.368;2023-04-02T11:04:43;100621.75;;;10.95;67.18
65553;BME280;52465;51.560;14.368;2023-04-02T11:07:16;100645.75;;;11.08;67.33
65553;BME280;52465;51.560;14.368;2023-04-02T11:09:46;100607.72;;;10.86;67.50
65553;BME280;52465;51.560;14.368;2023-04-02T11:12:22;100632.06;;;10.97;67.34
65553;BME280;52465;51.560;14.368;2023-04-02T11:14:53;100631.25;;;10.96;67.55
65553;BME280;52465;51.560;14.368;2023-04-02T11:17:20;100665.28;;;11.14;67.27
65553;BME280;52465;51.560;14.368;2023-04-02T11:22:43;100666.72;;;11.08;67.09
65553;BME280;52465;51.560;14.368;2023-04-02T11:27:49;100675.56;;;11.07;67.39
65553;BME280;52465;51.560;14.368;2023-04-02T11:30:24;100690.97;;;11.10;67.33
65553;BME280;52465;51.560;14.368;2023-04-02T11:32:51;100690.44;;;11.07;67.33
65553;BME280;52465;51.560;14.368;2023-04-02T11:46:03;100710.28;;;11.09;67.23
65553;BME280;52465;51.560;14.368;2023-04-02T11:48:34;100704.53;;;11.06;66.99
65553;BME280;52465;51.560;14.368;2023-04-02T11:53:46;100716.44;;;11.00;67.26
65553;BME280;52465;51.560;14.368;2023-04-02T11:56:34;100722.72;;;11.07;66.95
65553;BME280;52465;51.560;14.368;2023-04-02T11:59:27;100730.41;;;11.09;66.89
65553;BME280;52465;51.560;14.368;2023-04-02T12:02:23;100737.63;;;11.07;67.24
65553;BME280;52465;51.560;14.368;2023-04-02T12:05:20;100738.88;;;11.03;67.17
65553;BME280;52465;51.560;14.368;2023-04-02T12:07:59;100746.56;;;11.04;67.16
65553;BME280;52465;51.560;14.368;2023-04-02T12:10:57;100760.50;;;11.05;67.13
65553;BME280;52465;51.560;14.368;2023-04-02T12:16:05;100763.66;;;11.08;67.13
65553;BME280;52465;51.560;14.368;2023-04-02T12:18:32;100751.81;;;11.04;67.10
65553;BME280;52465;51.560;14.368;2023-04-02T12:20:58;100727.16;;;10.79;66.79
65553;BME280;52465;51.560;14.368;2023-04-02T12:23:28;100774.28;;;11.07;66.90
65553;BME280;52465;51.560;14.368;2023-04-02T12:28:21;100766.63;;;10.96;66.89
65553;BME280;52465;51.560;14.368;2023-04-02T12:31:03;100762.72;;;11.00;67.07
65553;BME280;52465;51.560;14.368;2023-04-02T12:33:37;100775.94;;;11.08;67.00
65553;BME280;52465;51.560;14.368;2023-04-02T12:38:42;100779.81;;;11.04;66.97
65553;BME280;52465;51.560;14.368;2023-04-02T12:41:28;100780.13;;;11.01;67.03
65553;BME280;52465;51.560;14.368;2023-04-02T12:43:57;100785.59;;;11.07;66.88
65553;BME280;52465;51.560;14.368;2023-04-02T12:46:41;100796.91;;;11.08;66.96
65553;BME280;52465;51.560;14.368;2023-04-02T12:49:33;100800.63;;;11.05;66.83
65553;BME280;52465;51.560;14.368;2023-04-02T12:52:07;100792.09;;;11.03;67.00
65553;BME280;52465;51.560;14.368;2023-04-02T12:57:33;100798.97;;;11.04;67.13
65553;BME280;52465;51.560;14.368;2023-04-02T13:03:15;100794.47;;;10.97;66.80
65553;BME280;52465;51.560;14.368;2023-04-02T13:05:55;100815.53;;;11.05;66.95
65553;BME280;52465;51.560;14.368;2023-04-02T13:08:27;100805.03;;;11.05;66.86
65553;BME280;52465;51.560;14.368;2023-04-02T13:10:57;100805.34;;;11.02;67.06
65553;BME280;52465;51.560;14.368;2023-04-02T13:13:27;100804.13;;;10.96;66.96
65553;BME280;52465;51.560;14.368;2023-04-02T13:18:45;100791.72;;;10.98;66.85
65553;BME280;52465;51.560;14.368;2023-04-02T13:23:37;100796.31;;;10.86;66.99
65553;BME280;52465;51.560;14.368;2023-04-02T13:26:14;100794.44;;;10.79;66.74
65553;BME280;52465;51.560;14.368;2023-04-02T13:29:03;100825.34;;;11.03;66.82
65553;BME280;52465;51.560;14.368;2023-04-02T13:31:41;100812.00;;;10.96;67.06
65553;BME280;52465;51.560;14.368;2023-04-02T13:34:10;100804.31;;;10.85;66.70
65553;BME280;52465;51.560;14.368;2023-04-02T13:36:35;100787.41;;;10.79;66.81
65553;BME280;52465;51.560;14.368;2023-04-02T13:39:01;100826.97;;;11.04;66.93
65553;BME280;52465;51.560;14.368;2023-04-02T13:41:30;100827.94;;;11.03;66.77
65553;BME280;52465;51.560;14.368;2023-04-02T13:44:00;100827.13;;;11.02;67.06
65553;BME280;52465;51.560;14.368;2023-04-02T13:46:28;100834.69;;;11.05;66.84
65553;BME280;52465;51.560;14.368;2023-04-02T13:48:55;100827.88;;;10.95;66.95
65553;BME280;52465;51.560;14.368;2023-04-02T13:51:23;100826.88;;;10.96;66.51
65553;BME280;52465;51.560;14.368;2023-04-02T13:53:55;100834.16;;;11.02;66.90
65553;BME280;52465;51.560;14.368;2023-04-02T13:56:23;100815.31;;;10.89;66.71
65553;BME280;52465;51.560;14.368;2023-04-02T13:58:50;100848.75;;;11.04;66.91
65553;BME280;52465;51.560;14.368;2023-04-02T14:01:16;100835.00;;;11.02;66.89
65553;BME280;52465;51.560;14.368;2023-04-02T14:03:42;100841.31;;;11.00;66.93
65553;BME280;52465;51.560;14.368;2023-04-02T14:08:48;100850.72;;;11.02;66.57
65553;BME280;52465;51.560;14.368;2023-04-02T14:11:32;100810.28;;;10.77;66.56
65553;BME280;52465;51.560;14.368;2023-04-02T14:14:24;100843.00;;;11.01;66.66
65553;BME280;52465;51.560;14.368;2023-04-02T14:37:29;100852.97;;;10.88;66.88
65553;BME280;52465;51.560;14.368;2023-04-02T14:40:38;100866.59;;;11.01;66.88
65553;BME280;52465;51.560;14.368;2023-04-02T14:43:22;100867.53;;;11.00;66.57
65553;BME280;52465;51.560;14.368;2023-04-02T14:46:01;100798.91;;;10.59;66.63
65553;BME280;52465;51.560;14.368;2023-04-02T14:48:36;100881.03;;;11.05;66.70
65553;BME280;52465;51.560;14.368;2023-04-02T14:51:33;100830.94;;;10.80;66.52
65553;BME280;52465;51.560;14.368;2023-04-02T14:54:08;100871.50;;;11.04;66.49
65553;BME280;52465;51.560;14.368;2023-04-02T14:56:44;100884.47;;;11.05;66.47
65553;BME280;52465;51.560;14.368;2023-04-02T14:59:51;100854.63;;;10.89;66.31
65553;BME280;52465;51.560;14.368;2023-04-02T15:02:38;100884.78;;;11.02;66.37
65553;BME280;52465;51.560;14.368;2023-04-02T15:05:27;100879.69;;;11.01;66.25
65553;BME280;52465;51.560;14.368;2023-04-02T15:08:02;100866.63;;;10.91;66.03
65553;BME280;52465;51.560;14.368;2023-04-02T15:10:38;100882.31;;;11.01;66.13
65553;BME280;52465;51.560;14.368;2023-04-02T15:13:13;100891.25;;;10.98;66.34
65553;BME280;52465;51.560;14.368;2023-04-02T15:15:57;100890.84;;;10.93;66.36
65553;BME280;52465;51.560;14.368;2023-04-02T15:18:24;100879.75;;;10.81;66.26
65553;BME280;52465;51.560;14.368;2023-04-02T15:21:19;100881.94;;;10.86;66.45
65553;BME280;52465;51.560;14.368;2023-04-02T15:23:58;100899.94;;;10.99;66.33
65553;BME280;52465;51.560;14.368;2023-04-02T15:34:49;100899.03;;;10.90;66.12
65553;BME280;52465;51.560;14.368;2023-04-02T15:37:34;100907.84;;;10.89;66.18
65553;BME280;52465;51.560;14.368;2023-04-02T15:43:16;100912.66;;;10.94;66.44
65553;BME280;52465;51.560;14.368;2023-04-02T15:45:47;100922.03;;;10.96;66.20
65553;BME280;52465;51.560;14.368;2023-04-02T15:48:27;100906.06;;;10.90;66.35
65553;BME280;52465;51.560;14.368;2023-04-02T15:56:18;100920.81;;;10.91;66.08
65553;BME280;52465;51.560;14.368;2023-04-02T16:02:19;100929.19;;;10.94;66.29
65553;BME280;52465;51.560;14.368;2023-04-02T16:04:53;100930.88;;;10.95;66.31
65553;BME280;52465;51.560;14.368;2023-04-02T16:07:49;100932.25;;;10.90;66.24
65553;BME280;52465;51.560;14.368;2023-04-02T16:13:14;100924.66;;;10.86;65.97